sensor_id;sensor_type;location;lat;lon;timestamp;P1;durP1;ratioP1;P2;durP2;ratioP2
18973;SDS011;9621;48.690;9.466;2024-01-10T00:00:17;29.37;;;14.40;;
18973;SDS011;9621;48.690;9.466;2024-01-10T00:02:46;32.13;;;16.57;;
18973;SDS011;9621;48.690;9.466;2024-01-10T00:05:12;30.47;;;14.90;;
18973;SDS011;9621;48.690;9.466;2024-01-10T00:07:40;26.83;;;14.07;;
18973;SDS011;9621;48.690;9.466;2024-01-10T00:10:07;28.17;;;14.20;;
18973;SDS011;9621;48.690;9.466;2024-01-10T00:12:34;25.30;;;14.53;;
18973;SDS011;9621;48.690;9.466;2024-01-10T00:15:02;28.63;;;15.20;;
18973;SDS011;9621;48.690;9.466;2024-01-10T00:17:30;27.37;;;15.07;;
18973;SDS011;9621;48.690;9.466;2024-01-10T00:19:58;28.10;;;14.80;;
18973;SDS011;9621;48.690;9.466;2024-01-10T00:22:25;28.63;;;15.50;;
18973;SDS011;9621;48.690;9.466;2024-01-10T00:24:52;31.97;;;15.47;;
18973;SDS011;9621;48.690;9.466;2024-01-10T00:27:19;30.50;;;14.50;;
18973;SDS011;9621;48.690;9.466;2024-01-10T00:29:47;31.60;;;15.43;;
18973;SDS011;9621;48.690;9.466;2024-01-10T00:32:13;34.20;;;15.33;;
18973;SDS011;9621;48.690;9.466;2024-01-10T00:34:40;29.20;;;14.73;;
18973;SDS011;9621;48.690;9.466;2024-01-10T00:37:08;31.90;;;15.70;;
18973;SDS011;9621;48.690;9.466;2024-01-10T00:39:35;31.50;;;15.73;;
18973;SDS011;9621;48.690;9.466;2024-01-10T00:42:03;32.17;;;15.47;;
18973;SDS011;9621;48.690;9.466;2024-01-10T00:44:30;30.63;;;15.30;;
18973;SDS011;9621;48.690;9.466;2024-01-10T00:46:56;28.67;;;14.63;;
18973;SDS011;9621;48.690;9.466;2024-01-10T00:49:23;32.67;;;14.27;;
18973;SDS011;9621;48.690;9.466;2024-01-10T00:51:50;31.13;;;14.50;;
18973;SDS011;9621;48.690;9.466;2024-01-10T00:54:18;28.07;;;14.87;;
18973;SDS011;9621;48.690;9.466;2024-01-10T00:56:45;31.10;;;15.00;;
18973;SDS011;9621;48.690;9.466;2024-01-10T00:59:12;32.43;;;15.23;;
18973;SDS011;9621;48.690;9.466;2024-01-10T01:01:39;31.00;;;15.93;;
18973;SDS011;9621;48.690;9.466;2024-01-10T01:04:06;31.03;;;15.73;;
18973;SDS011;9621;48.690;9.466;2024-01-10T01:06:33;30.30;;;15.17;;
18973;SDS011;9621;48.690;9.466;2024-01-10T01:08:59;32.47;;;14.13;;
18973;SDS011;9621;48.690;9.466;2024-01-10T01:11:28;34.87;;;14.97;;
18973;SDS011;9621;48.690;9.466;2024-01-10T01:13:55;30.90;;;14.73;;
18973;SDS011;9621;48.690;9.466;2024-01-10T01:16:22;27.03;;;14.50;;
18973;SDS011;9621;48.690;9.466;2024-01-10T01:18:49;31.17;;;15.03;;
18973;SDS011;9621;48.690;9.466;2024-01-10T01:21:16;31.37;;;15.43;;
18973;SDS011;9621;48.690;9.466;2024-01-10T01:23:42;35.13;;;16.23;;
18973;SDS011;9621;48.690;9.466;2024-01-10T01:26:09;30.37;;;15.57;;
18973;SDS011;9621;48.690;9.466;2024-01-10T01:28:39;27.97;;;14.73;;
18973;SDS011;9621;48.690;9.466;2024-01-10T01:31:06;30.10;;;14.73;;
18973;SDS011;9621;48.690;9.466;2024-01-10T01:33:33;28.87;;;14.80;;
18973;SDS011;9621;48.690;9.466;2024-01-10T01:36:00;33.20;;;15.53;;
18973;SDS011;9621;48.690;9.466;2024-01-10T01:38:27;28.97;;;14.23;;
18973;SDS011;9621;48.690;9.466;2024-01-10T01:40:54;30.47;;;15.27;;
18973;SDS011;9621;48.690;9.466;2024-01-10T01:43:23;24.67;;;13.47;;
18973;SDS011;9621;48.690;9.466;2024-01-10T01:45:52;28.10;;;15.40;;
18973;SDS011;9621;48.690;9.466;2024-01-10T01:48:20;28.97;;;15.37;;
18973;SDS011;9621;48.690;9.466;2024-01-10T01:50:50;30.50;;;15.80;;
18973;SDS011;9621;48.690;9.466;2024-01-10T01:53:20;31.33;;;15.70;;
18973;SDS011;9621;48.690;9.466;2024-01-10T01:55:48;31.80;;;15.13;;
18973;SDS011;9621;48.690;9.466;2024-01-10T01:58:16;30.97;;;15.90;;
18973;SDS011;9621;48.690;9.466;2024-01-10T02:00:47;26.70;;;15.43;;
18973;SDS011;9621;48.690;9.466;2024-01-10T02:03:18;27.43;;;14.10;;
18973;SDS011;9621;48.690;9.466;2024-01-10T02:05:46;36.50;;;16.73;;
18973;SDS011;9621;48.690;9.466;2024-01-10T02:08:13;35.83;;;16.63;;
18973;SDS011;9621;48.690;9.466;2024-01-10T02:10:40;29.90;;;15.60;;
18973;SDS011;9621;48.690;9.466;2024-01-10T02:13:07;29.10;;;14.97;;
18973;SDS011;9621;48.690;9.466;2024-01-10T02:15:36;31.53;;;15.70;;
18973;SDS011;9621;48.690;9.466;2024-01-10T02:18:04;32.43;;;16.53;;
18973;SDS011;9621;48.690;9.466;2024-01-10T02:20:33;35.37;;;16.07;;
18973;SDS011;9621;48.690;9.466;2024-01-10T02:23:00;38.20;;;17.03;;
18973;SDS011;9621;48.690;9.466;2024-01-10T02:25:28;29.30;;;15.63;;
18973;SDS011;9621;48.690;9.466;2024-01-10T02:27:55;32.67;;;16.47;;
18973;SDS011;9621;48.690;9.466;2024-01-10T02:30:21;30.17;;;15.27;;
18973;SDS011;9621;48.690;9.466;2024-01-10T02:32:48;26.37;;;15.27;;
18973;SDS011;9621;48.690;9.466;2024-01-10T02:35:15;28.93;;;16.17;;
18973;SDS011;9621;48.690;9.466;2024-01-10T02:37:42;28.90;;;15.47;;
18973;SDS011;9621;48.690;9.466;2024-01-10T02:40:10;29.47;;;16.13;;
18973;SDS011;9621;48.690;9.466;2024-01-10T02:42:39;29.50;;;15.40;;
18973;SDS011;9621;48.690;9.466;2024-01-10T02:45:06;31.73;;;15.63;;
18973;SDS011;9621;48.690;9.466;2024-01-10T02:47:34;31.53;;;15.93;;
18973;SDS011;9621;48.690;9.466;2024-01-10T02:50:02;31.60;;;16.17;;
18973;SDS011;9621;48.690;9.466;2024-01-10T02:52:29;30.37;;;16.10;;
18973;SDS011;9621;48.690;9.466;2024-01-10T02:54:56;28.90;;;15.50;;
18973;SDS011;9621;48.690;9.466;2024-01-10T02:57:23;34.77;;;16.77;;
18973;SDS011;9621;48.690;9.466;2024-01-10T02:59:51;37.03;;;15.90;;
18973;SDS011;9621;48.690;9.466;2024-01-10T03:02:18;38.27;;;16.87;;
18973;SDS011;9621;48.690;9.466;2024-01-10T03:04:44;31.13;;;16.17;;
18973;SDS011;9621;48.690;9.466;2024-01-10T03:07:11;30.43;;;15.67;;
18973;SDS011;9621;48.690;9.466;2024-01-10T03:09:38;29.33;;;16.30;;
18973;SDS011;9621;48.690;9.466;2024-01-10T03:12:05;29.30;;;15.07;;
18973;SDS011;9621;48.690;9.466;2024-01-10T03:14:32;29.83;;;15.90;;
18973;SDS011;9621;48.690;9.466;2024-01-10T03:17:01;35.17;;;16.80;;
18973;SDS011;9621;48.690;9.466;2024-01-10T03:19:28;32.23;;;16.57;;
18973;SDS011;9621;48.690;9.466;2024-01-10T03:21:55;33.17;;;16.43;;
18973;SDS011;9621;48.690;9.466;2024-01-10T03:24:22;30.10;;;15.80;;
18973;SDS011;9621;48.690;9.466;2024-01-10T03:26:52;29.93;;;16.07;;
18973;SDS011;9621;48.690;9.466;2024-01-10T03:29:19;33.77;;;15.43;;
18973;SDS011;9621;48.690;9.466;2024-01-10T03:31:45;32.43;;;16.33;;
18973;SDS011;9621;48.690;9.466;2024-01-10T03:34:14;31.03;;;16.40;;
18973;SDS011;9621;48.690;9.466;2024-01-10T03:36:43;42.67;;;19.53;;
18973;SDS011;9621;48.690;9.466;2024-01-10T03:39:09;47.53;;;19.57;;
18973;SDS011;9621;48.690;9.466;2024-01-10T03:41:36;38.03;;;17.90;;
18973;SDS011;9621;48.690;9.466;2024-01-10T03:44:03;37.67;;;17.60;;
18973;SDS011;9621;48.690;9.466;2024-01-10T03:46:30;27.53;;;14.47;;
18973;SDS011;9621;48.690;9.466;2024-01-10T03:48:57;29.30;;;15.17;;
18973;SDS011;9621;48.690;9.466;2024-01-10T03:51:25;30.93;;;15.17;;
18973;SDS011;9621;48.690;9.466;2024-01-10T03:53:52;31.23;;;15.97;;
18973;SDS011;9621;48.690;9.466;2024-01-10T03:56:20;32.97;;;14.80;;
18973;SDS011;9621;48.690;9.466;2024-01-10T03:58:47;33.30;;;15.30;;
18973;SDS011;9621;48.690;9.466;2024-01-10T04:01:14;31.23;;;14.67;;
18973;SDS011;9621;48.690;9.466;2024-01-10T04:03:41;33.50;;;16.57;;
18973;SDS011;9621;48.690;9.466;2024-01-10T04:06:09;35.27;;;16.27;;
18973;SDS011;9621;48.690;9.466;2024-01-10T04:08:37;33.03;;;16.17;;
18973;SDS011;9621;48.690;9.466;2024-01-10T04:11:04;34.23;;;16.27;;
18973;SDS011;9621;48.690;9.466;2024-01-10T04:13:31;28.77;;;14.73;;
18973;SDS011;9621;48.690;9.466;2024-01-10T04:15:58;31.13;;;16.07;;
18973;SDS011;9621;48.690;9.466;2024-01-10T04:18:25;30.07;;;14.90;;
18973;SDS011;9621;48.690;9.466;2024-01-10T04:20:51;34.63;;;16.77;;
18973;SDS011;9621;48.690;9.466;2024-01-10T04:23:18;30.07;;;15.60;;
18973;SDS011;9621;48.690;9.466;2024-01-10T04:25:47;35.50;;;16.50;;
18973;SDS011;9621;48.690;9.466;2024-01-10T04:28:13;29.87;;;16.83;;
18973;SDS011;9621;48.690;9.466;2024-01-10T04:30:40;27.87;;;15.03;;
18973;SDS011;9621;48.690;9.466;2024-01-10T04:33:07;34.43;;;16.17;;
18973;SDS011;9621;48.690;9.466;2024-01-10T04:35:34;33.93;;;15.63;;
18973;SDS011;9621;48.690;9.466;2024-01-10T04:38:01;35.37;;;15.10;;
18973;SDS011;9621;48.690;9.466;2024-01-10T04:40:28;35.37;;;15.97;;
18973;SDS011;9621;48.690;9.466;2024-01-10T04:42:56;32.97;;;15.30;;
18973;SDS011;9621;48.690;9.466;2024-01-10T04:45:23;31.33;;;15.37;;
18973;SDS011;9621;48.690;9.466;2024-01-10T04:47:50;30.30;;;15.27;;
18973;SDS011;9621;48.690;9.466;2024-01-10T04:50:16;33.13;;;16.00;;
18973;SDS011;9621;48.690;9.466;2024-01-10T04:52:43;32.27;;;15.57;;
18973;SDS011;9621;48.690;9.466;2024-01-10T04:55:10;31.37;;;16.30;;
18973;SDS011;9621;48.690;9.466;2024-01-10T04:57:37;30.37;;;15.93;;
18973;SDS011;9621;48.690;9.466;2024-01-10T05:00:06;32.13;;;16.10;;
18973;SDS011;9621;48.690;9.466;2024-01-10T05:02:33;31.80;;;16.23;;
18973;SDS011;9621;48.690;9.466;2024-01-10T05:05:00;32.03;;;16.13;;
18973;SDS011;9621;48.690;9.466;2024-01-10T05:07:29;32.93;;;16.37;;
18973;SDS011;9621;48.690;9.466;2024-01-10T05:09:56;32.27;;;15.80;;
18973;SDS011;9621;48.690;9.466;2024-01-10T05:12:22;31.20;;;15.60;;
18973;SDS011;9621;48.690;9.466;2024-01-10T05:14:50;33.27;;;15.87;;
18973;SDS011;9621;48.690;9.466;2024-01-10T05:17:18;32.17;;;17.13;;
18973;SDS011;9621;48.690;9.466;2024-01-10T05:19:45;32.33;;;17.10;;
18973;SDS011;9621;48.690;9.466;2024-01-10T05:22:12;35.53;;;16.70;;
18973;SDS011;9621;48.690;9.466;2024-01-10T05:24:39;37.07;;;18.53;;
18973;SDS011;9621;48.690;9.466;2024-01-10T05:27:06;37.77;;;17.87;;
18973;SDS011;9621;48.690;9.466;2024-01-10T05:29:33;38.33;;;18.37;;
18973;SDS011;9621;48.690;9.466;2024-01-10T05:32:00;46.17;;;21.93;;
18973;SDS011;9621;48.690;9.466;2024-01-10T05:34:28;34.40;;;18.03;;
18973;SDS011;9621;48.690;9.466;2024-01-10T05:36:55;40.80;;;17.83;;
18973;SDS011;9621;48.690;9.466;2024-01-10T05:39:22;37.80;;;17.33;;
18973;SDS011;9621;48.690;9.466;2024-01-10T05:41:49;37.03;;;17.77;;
18973;SDS011;9621;48.690;9.466;2024-01-10T05:44:16;39.33;;;17.47;;
18973;SDS011;9621;48.690;9.466;2024-01-10T05:46:43;37.77;;;16.90;;
18973;SDS011;9621;48.690;9.466;2024-01-10T05:49:10;35.13;;;17.83;;
18973;SDS011;9621;48.690;9.466;2024-01-10T05:51:38;33.33;;;16.57;;
18973;SDS011;9621;48.690;9.466;2024-01-10T05:54:05;35.93;;;17.40;;
18973;SDS011;9621;48.690;9.466;2024-01-10T05:56:33;45.00;;;17.90;;
18973;SDS011;9621;48.690;9.466;2024-01-10T05:59:00;31.63;;;16.20;;
18973;SDS011;9621;48.690;9.466;2024-01-10T06:01:30;37.97;;;17.43;;
18973;SDS011;9621;48.690;9.466;2024-01-10T06:03:57;39.23;;;17.80;;
18973;SDS011;9621;48.690;9.466;2024-01-10T06:06:24;42.00;;;19.23;;
18973;SDS011;9621;48.690;9.466;2024-01-10T06:08:52;35.10;;;17.77;;
18973;SDS011;9621;48.690;9.466;2024-01-10T06:11:19;34.33;;;17.40;;
18973;SDS011;9621;48.690;9.466;2024-01-10T06:13:46;34.00;;;17.83;;
18973;SDS011;9621;48.690;9.466;2024-01-10T06:16:13;33.87;;;17.37;;
18973;SDS011;9621;48.690;9.466;2024-01-10T06:18:40;34.33;;;17.73;;
18973;SDS011;9621;48.690;9.466;2024-01-10T06:21:07;36.73;;;18.13;;
18973;SDS011;9621;48.690;9.466;2024-01-10T06:23:35;32.07;;;17.20;;
18973;SDS011;9621;48.690;9.466;2024-01-10T06:26:04;35.23;;;17.63;;
18973;SDS011;9621;48.690;9.466;2024-01-10T06:28:31;33.30;;;16.93;;
18973;SDS011;9621;48.690;9.466;2024-01-10T06:30:58;41.07;;;17.33;;
18973;SDS011;9621;48.690;9.466;2024-01-10T06:33:25;33.93;;;17.63;;
18973;SDS011;9621;48.690;9.466;2024-01-10T06:35:52;38.47;;;18.33;;
18973;SDS011;9621;48.690;9.466;2024-01-10T06:38:19;34.83;;;17.90;;
18973;SDS011;9621;48.690;9.466;2024-01-10T06:40:47;35.90;;;17.90;;
18973;SDS011;9621;48.690;9.466;2024-01-10T06:43:17;32.80;;;16.83;;
18973;SDS011;9621;48.690;9.466;2024-01-10T06:45:43;36.37;;;17.20;;
18973;SDS011;9621;48.690;9.466;2024-01-10T06:48:11;35.80;;;17.23;;
18973;SDS011;9621;48.690;9.466;2024-01-10T06:50:39;34.23;;;17.00;;
18973;SDS011;9621;48.690;9.466;2024-01-10T06:53:06;32.63;;;17.33;;
18973;SDS011;9621;48.690;9.466;2024-01-10T06:55:33;33.63;;;16.93;;
18973;SDS011;9621;48.690;9.466;2024-01-10T06:57:59;37.53;;;17.77;;
18973;SDS011;9621;48.690;9.466;2024-01-10T07:00:28;33.77;;;17.73;;
18973;SDS011;9621;48.690;9.466;2024-01-10T07:02:55;38.07;;;17.37;;
18973;SDS011;9621;48.690;9.466;2024-01-10T07:05:22;35.27;;;18.87;;
18973;SDS011;9621;48.690;9.466;2024-01-10T07:07:49;37.70;;;18.70;;
18973;SDS011;9621;48.690;9.466;2024-01-10T07:10:16;38.47;;;19.17;;
18973;SDS011;9621;48.690;9.466;2024-01-10T07:12:43;39.37;;;20.50;;
18973;SDS011;9621;48.690;9.466;2024-01-10T07:15:10;43.23;;;19.23;;
18973;SDS011;9621;48.690;9.466;2024-01-10T07:17:39;38.30;;;19.33;;
18973;SDS011;9621;48.690;9.466;2024-01-10T07:20:06;44.07;;;19.80;;
18973;SDS011;9621;48.690;9.466;2024-01-10T07:22:36;43.63;;;21.20;;
18973;SDS011;9621;48.690;9.466;2024-01-10T07:25:06;40.30;;;18.27;;
18973;SDS011;9621;48.690;9.466;2024-01-10T07:27:34;38.03;;;18.37;;
18973;SDS011;9621;48.690;9.466;2024-01-10T07:30:02;38.60;;;19.30;;
18973;SDS011;9621;48.690;9.466;2024-01-10T07:32:35;37.20;;;17.90;;
18973;SDS011;9621;48.690;9.466;2024-01-10T07:35:04;38.63;;;18.30;;
18973;SDS011;9621;48.690;9.466;2024-01-10T07:37:34;41.37;;;19.50;;
18973;SDS011;9621;48.690;9.466;2024-01-10T07:40:01;42.47;;;19.07;;
18973;SDS011;9621;48.690;9.466;2024-01-10T07:42:30;38.23;;;18.60;;
18973;SDS011;9621;48.690;9.466;2024-01-10T07:44:57;35.33;;;18.73;;
18973;SDS011;9621;48.690;9.466;2024-01-10T07:47:24;35.73;;;18.30;;
18973;SDS011;9621;48.690;9.466;2024-01-10T07:49:51;37.40;;;18.40;;
18973;SDS011;9621;48.690;9.466;2024-01-10T07:52:19;36.83;;;19.47;;
18973;SDS011;9621;48.690;9.466;2024-01-10T07:54:46;40.63;;;18.70;;
18973;SDS011;9621;48.690;9.466;2024-01-10T07:57:13;37.47;;;18.80;;
18973;SDS011;9621;48.690;9.466;2024-01-10T07:59:43;37.77;;;18.93;;
18973;SDS011;9621;48.690;9.466;2024-01-10T08:02:10;36.03;;;18.13;;
18973;SDS011;9621;48.690;9.466;2024-01-10T08:04:37;38.07;;;19.10;;
18973;SDS011;9621;48.690;9.466;2024-01-10T08:07:04;39.47;;;19.57;;
18973;SDS011;9621;48.690;9.466;2024-01-10T08:09:33;36.60;;;18.50;;
18973;SDS011;9621;48.690;9.466;2024-01-10T08:12:00;38.30;;;18.53;;
18973;SDS011;9621;48.690;9.466;2024-01-10T08:14:27;34.90;;;17.10;;
18973;SDS011;9621;48.690;9.466;2024-01-10T08:16:54;37.47;;;19.73;;
18973;SDS011;9621;48.690;9.466;2024-01-10T08:19:23;36.60;;;17.63;;
18973;SDS011;9621;48.690;9.466;2024-01-10T08:21:50;38.53;;;19.47;;
18973;SDS011;9621;48.690;9.466;2024-01-10T08:24:18;39.47;;;18.37;;
18973;SDS011;9621;48.690;9.466;2024-01-10T08:26:46;37.60;;;18.83;;
18973;SDS011;9621;48.690;9.466;2024-01-10T08:29:16;37.77;;;19.80;;
18973;SDS011;9621;48.690;9.466;2024-01-10T08:31:43;40.43;;;18.60;;
18973;SDS011;9621;48.690;9.466;2024-01-10T08:34:10;41.40;;;19.47;;
18973;SDS011;9621;48.690;9.466;2024-01-10T08:36:37;43.23;;;20.73;;
18973;SDS011;9621;48.690;9.466;2024-01-10T08:39:04;40.87;;;19.40;;
18973;SDS011;9621;48.690;9.466;2024-01-10T08:41:31;38.53;;;21.23;;
18973;SDS011;9621;48.690;9.466;2024-01-10T08:44:00;35.53;;;18.90;;
18973;SDS011;9621;48.690;9.466;2024-01-10T08:46:27;40.97;;;19.87;;
18973;SDS011;9621;48.690;9.466;2024-01-10T08:48:54;40.23;;;20.47;;
18973;SDS011;9621;48.690;9.466;2024-01-10T08:51:21;37.43;;;19.17;;
18973;SDS011;9621;48.690;9.466;2024-01-10T08:53:48;37.97;;;20.00;;
18973;SDS011;9621;48.690;9.466;2024-01-10T08:56:15;36.07;;;20.37;;
18973;SDS011;9621;48.690;9.466;2024-01-10T08:58:42;40.70;;;20.30;;
18973;SDS011;9621;48.690;9.466;2024-01-10T09:01:10;37.53;;;18.77;;
18973;SDS011;9621;48.690;9.466;2024-01-10T09:03:37;41.03;;;20.50;;
18973;SDS011;9621;48.690;9.466;2024-01-10T09:06:04;37.47;;;19.90;;
18973;SDS011;9621;48.690;9.466;2024-01-10T09:08:32;37.47;;;21.10;;
18973;SDS011;9621;48.690;9.466;2024-01-10T09:10:59;39.70;;;19.87;;
18973;SDS011;9621;48.690;9.466;2024-01-10T09:13:27;39.17;;;20.63;;
18973;SDS011;9621;48.690;9.466;2024-01-10T09:15:53;41.03;;;20.10;;
18973;SDS011;9621;48.690;9.466;2024-01-10T09:18:22;38.20;;;19.67;;
18973;SDS011;9621;48.690;9.466;2024-01-10T09:20:49;45.90;;;20.30;;
18973;SDS011;9621;48.690;9.466;2024-01-10T09:23:16;41.37;;;19.77;;
18973;SDS011;9621;48.690;9.466;2024-01-10T09:25:44;39.03;;;20.30;;
18973;SDS011;9621;48.690;9.466;2024-01-10T09:28:10;39.87;;;21.33;;
18973;SDS011;9621;48.690;9.466;2024-01-10T09:30:38;44.40;;;20.30;;
18973;SDS011;9621;48.690;9.466;2024-01-10T09:33:05;36.27;;;20.50;;
18973;SDS011;9621;48.690;9.466;2024-01-10T09:35:33;34.67;;;20.10;;
18973;SDS011;9621;48.690;9.466;2024-01-10T09:38:00;39.17;;;20.70;;
18973;SDS011;9621;48.690;9.466;2024-01-10T09:40:27;40.20;;;20.87;;
18973;SDS011;9621;48.690;9.466;2024-01-10T09:42:54;38.77;;;20.33;;
18973;SDS011;9621;48.690;9.466;2024-01-10T09:45:23;39.67;;;21.73;;
18973;SDS011;9621;48.690;9.466;2024-01-10T09:47:53;36.73;;;19.80;;
18973;SDS011;9621;48.690;9.466;2024-01-10T09:50:22;34.87;;;20.03;;
18973;SDS011;9621;48.690;9.466;2024-01-10T09:52:52;37.80;;;20.93;;
18973;SDS011;9621;48.690;9.466;2024-01-10T09:55:22;38.73;;;20.73;;
18973;SDS011;9621;48.690;9.466;2024-01-10T09:57:49;42.40;;;21.67;;
18973;SDS011;9621;48.690;9.466;2024-01-10T10:00:17;38.30;;;20.97;;
18973;SDS011;9621;48.690;9.466;2024-01-10T10:02:45;44.23;;;22.10;;
18973;SDS011;9621;48.690;9.466;2024-01-10T10:05:14;39.10;;;21.10;;
18973;SDS011;9621;48.690;9.466;2024-01-10T10:07:45;36.07;;;21.13;;
18973;SDS011;9621;48.690;9.466;2024-01-10T10:10:14;36.83;;;21.37;;
18973;SDS011;9621;48.690;9.466;2024-01-10T10:12:42;38.33;;;21.67;;
18973;SDS011;9621;48.690;9.466;2024-01-10T10:15:10;38.00;;;21.23;;
18973;SDS011;9621;48.690;9.466;2024-01-10T10:17:39;38.83;;;20.57;;
18973;SDS011;9621;48.690;9.466;2024-01-10T10:20:13;38.40;;;21.37;;
18973;SDS011;9621;48.690;9.466;2024-01-10T10:22:50;38.43;;;20.97;;
18973;SDS011;9621;48.690;9.466;2024-01-10T10:25:27;40.90;;;21.27;;
18973;SDS011;9621;48.690;9.466;2024-01-10T10:27:56;35.47;;;20.07;;
18973;SDS011;9621;48.690;9.466;2024-01-10T10:30:23;34.90;;;20.03;;
18973;SDS011;9621;48.690;9.466;2024-01-10T10:32:50;37.57;;;21.00;;
18973;SDS011;9621;48.690;9.466;2024-01-10T10:35:18;35.87;;;20.03;;
18973;SDS011;9621;48.690;9.466;2024-01-10T10:37:46;36.70;;;21.00;;
18973;SDS011;9621;48.690;9.466;2024-01-10T10:40:14;39.30;;;20.73;;
18973;SDS011;9621;48.690;9.466;2024-01-10T10:42:44;37.30;;;19.73;;
18973;SDS011;9621;48.690;9.466;2024-01-10T10:45:12;35.13;;;19.47;;
18973;SDS011;9621;48.690;9.466;2024-01-10T10:47:42;33.83;;;20.03;;
18973;SDS011;9621;48.690;9.466;2024-01-10T10:50:12;39.23;;;21.27;;
18973;SDS011;9621;48.690;9.466;2024-01-10T10:52:41;31.20;;;19.80;;
18973;SDS011;9621;48.690;9.466;2024-01-10T10:55:13;31.43;;;18.57;;
18973;SDS011;9621;48.690;9.466;2024-01-10T10:57:44;34.60;;;19.47;;
18973;SDS011;9621;48.690;9.466;2024-01-10T11:00:12;37.70;;;20.47;;
18973;SDS011;9621;48.690;9.466;2024-01-10T11:02:41;33.40;;;19.27;;
18973;SDS011;9621;48.690;9.466;2024-01-10T11:05:09;36.27;;;20.00;;
18973;SDS011;9621;48.690;9.466;2024-01-10T11:07:37;33.83;;;20.70;;
18973;SDS011;9621;48.690;9.466;2024-01-10T11:10:05;32.13;;;19.27;;
18973;SDS011;9621;48.690;9.466;2024-01-10T11:12:41;36.73;;;19.97;;
18973;SDS011;9621;48.690;9.466;2024-01-10T11:15:30;31.97;;;20.40;;
18973;SDS011;9621;48.690;9.466;2024-01-10T11:18:25;33.73;;;19.67;;
18973;SDS011;9621;48.690;9.466;2024-01-10T11:21:06;32.20;;;19.77;;
18973;SDS011;9621;48.690;9.466;2024-01-10T11:23:45;33.07;;;20.07;;
18973;SDS011;9621;48.690;9.466;2024-01-10T11:26:15;34.47;;;20.00;;
18973;SDS011;9621;48.690;9.466;2024-01-10T11:28:46;32.83;;;19.48;;
18973;SDS011;9621;48.690;9.466;2024-01-10T11:31:13;33.27;;;19.97;;
18973;SDS011;9621;48.690;9.466;2024-01-10T11:33:41;33.53;;;20.77;;
18973;SDS011;9621;48.690;9.466;2024-01-10T11:36:11;34.60;;;20.77;;
18973;SDS011;9621;48.690;9.466;2024-01-10T11:38:43;33.50;;;20.70;;
18973;SDS011;9621;48.690;9.466;2024-01-10T11:41:15;38.15;;;21.08;;
18973;SDS011;9621;48.690;9.466;2024-01-10T11:46:53;34.17;;;20.03;;
18973;SDS011;9621;48.690;9.466;2024-01-10T11:49:21;33.63;;;19.70;;
18973;SDS011;9621;48.690;9.466;2024-01-10T11:51:50;32.85;;;20.30;;
18973;SDS011;9621;48.690;9.466;2024-01-10T11:54:37;33.00;;;19.83;;
18973;SDS011;9621;48.690;9.466;2024-01-10T11:57:08;35.57;;;20.77;;
18973;SDS011;9621;48.690;9.466;2024-01-10T11:59:39;31.50;;;18.83;;
18973;SDS011;9621;48.690;9.466;2024-01-10T12:02:08;35.30;;;19.90;;
18973;SDS011;9621;48.690;9.466;2024-01-10T12:04:35;36.13;;;20.97;;
18973;SDS011;9621;48.690;9.466;2024-01-10T12:07:02;31.83;;;19.67;;
18973;SDS011;9621;48.690;9.466;2024-01-10T12:09:30;34.00;;;19.70;;
18973;SDS011;9621;48.690;9.466;2024-01-10T12:11:57;32.93;;;19.20;;
18973;SDS011;9621;48.690;9.466;2024-01-10T12:14:24;36.90;;;22.37;;
18973;SDS011;9621;48.690;9.466;2024-01-10T12:16:53;34.17;;;19.73;;
18973;SDS011;9621;48.690;9.466;2024-01-10T12:19:19;32.63;;;19.52;;
18973;SDS011;9621;48.690;9.466;2024-01-10T12:21:46;34.13;;;20.30;;
18973;SDS011;9621;48.690;9.466;2024-01-10T12:24:15;31.75;;;20.05;;
18973;SDS011;9621;48.690;9.466;2024-01-10T12:26:45;32.07;;;19.83;;
18973;SDS011;9621;48.690;9.466;2024-01-10T12:29:12;33.97;;;20.57;;
18973;SDS011;9621;48.690;9.466;2024-01-10T12:31:39;33.45;;;19.02;;
18973;SDS011;9621;48.690;9.466;2024-01-10T12:34:08;31.30;;;19.02;;
18973;SDS011;9621;48.690;9.466;2024-01-10T12:36:35;31.80;;;19.48;;
18973;SDS011;9621;48.690;9.466;2024-01-10T12:39:03;35.95;;;21.42;;
18973;SDS011;9621;48.690;9.466;2024-01-10T12:41:32;37.53;;;21.52;;
18973;SDS011;9621;48.690;9.466;2024-01-10T12:43:59;34.37;;;20.33;;
18973;SDS011;9621;48.690;9.466;2024-01-10T12:46:28;37.00;;;21.10;;
18973;SDS011;9621;48.690;9.466;2024-01-10T12:48:59;36.25;;;21.42;;
18973;SDS011;9621;48.690;9.466;2024-01-10T12:51:29;34.63;;;21.07;;
18973;SDS011;9621;48.690;9.466;2024-01-10T12:53:58;35.37;;;20.57;;
18973;SDS011;9621;48.690;9.466;2024-01-10T12:56:26;35.42;;;20.38;;
18973;SDS011;9621;48.690;9.466;2024-01-10T12:58:53;35.17;;;22.10;;
18973;SDS011;9621;48.690;9.466;2024-01-10T13:01:21;35.80;;;21.57;;
18973;SDS011;9621;48.690;9.466;2024-01-10T13:03:48;38.10;;;22.40;;
18973;SDS011;9621;48.690;9.466;2024-01-10T13:06:16;35.53;;;21.27;;
18973;SDS011;9621;48.690;9.466;2024-01-10T13:08:45;37.87;;;22.23;;
18973;SDS011;9621;48.690;9.466;2024-01-10T13:11:12;43.03;;;22.33;;
18973;SDS011;9621;48.690;9.466;2024-01-10T13:13:39;37.70;;;22.23;;
18973;SDS011;9621;48.690;9.466;2024-01-10T13:16:08;37.23;;;22.77;;
18973;SDS011;9621;48.690;9.466;2024-01-10T13:18:36;41.60;;;22.77;;
18973;SDS011;9621;48.690;9.466;2024-01-10T13:21:03;37.73;;;22.07;;
18973;SDS011;9621;48.690;9.466;2024-01-10T13:23:31;43.67;;;23.97;;
18973;SDS011;9621;48.690;9.466;2024-01-10T13:26:00;41.97;;;23.23;;
18973;SDS011;9621;48.690;9.466;2024-01-10T13:28:27;47.03;;;24.17;;
18973;SDS011;9621;48.690;9.466;2024-01-10T13:30:54;42.13;;;23.97;;
18973;SDS011;9621;48.690;9.466;2024-01-10T13:33:22;43.80;;;25.00;;
18973;SDS011;9621;48.690;9.466;2024-01-10T13:35:50;48.77;;;25.47;;
18973;SDS011;9621;48.690;9.466;2024-01-10T13:38:17;45.53;;;23.57;;
18973;SDS011;9621;48.690;9.466;2024-01-10T13:40:45;47.50;;;24.60;;
18973;SDS011;9621;48.690;9.466;2024-01-10T13:43:13;48.47;;;24.73;;
18973;SDS011;9621;48.690;9.466;2024-01-10T13:45:40;53.37;;;26.37;;
18973;SDS011;9621;48.690;9.466;2024-01-10T13:48:07;50.97;;;27.53;;
18973;SDS011;9621;48.690;9.466;2024-01-10T13:50:35;50.67;;;24.70;;
18973;SDS011;9621;48.690;9.466;2024-01-10T13:53:02;52.23;;;26.93;;
18973;SDS011;9621;48.690;9.466;2024-01-10T13:55:29;51.10;;;25.33;;
18973;SDS011;9621;48.690;9.466;2024-01-10T13:57:57;49.60;;;26.17;;
18973;SDS011;9621;48.690;9.466;2024-01-10T14:00:25;47.27;;;24.73;;
18973;SDS011;9621;48.690;9.466;2024-01-10T14:02:52;52.97;;;26.33;;
18973;SDS011;9621;48.690;9.466;2024-01-10T14:05:24;52.70;;;26.47;;
18973;SDS011;9621;48.690;9.466;2024-01-10T14:07:52;51.10;;;26.23;;
18973;SDS011;9621;48.690;9.466;2024-01-10T14:10:21;49.17;;;24.73;;
18973;SDS011;9621;48.690;9.466;2024-01-10T14:12:49;51.90;;;25.70;;
18973;SDS011;9621;48.690;9.466;2024-01-10T14:15:16;47.27;;;25.10;;
18973;SDS011;9621;48.690;9.466;2024-01-10T14:17:44;55.10;;;25.30;;
18973;SDS011;9621;48.690;9.466;2024-01-10T14:20:11;52.63;;;25.50;;
18973;SDS011;9621;48.690;9.466;2024-01-10T14:22:39;53.33;;;25.93;;
18973;SDS011;9621;48.690;9.466;2024-01-10T14:25:08;50.27;;;26.43;;
18973;SDS011;9621;48.690;9.466;2024-01-10T14:27:36;55.43;;;25.30;;
18973;SDS011;9621;48.690;9.466;2024-01-10T14:30:05;50.53;;;25.07;;
18973;SDS011;9621;48.690;9.466;2024-01-10T14:32:34;50.90;;;25.57;;
18973;SDS011;9621;48.690;9.466;2024-01-10T14:35:04;57.77;;;28.23;;
18973;SDS011;9621;48.690;9.466;2024-01-10T14:37:31;53.73;;;25.97;;
18973;SDS011;9621;48.690;9.466;2024-01-10T14:40:01;48.47;;;23.53;;